createdAt,value
2019-02-26T00:02:17.392Z,7.64
2019-02-26T00:04:46.238Z,7.65
2019-02-26T00:07:18.273Z,7.64
2019-02-26T00:09:46.894Z,7.64
2019-02-26T00:12:19.940Z,7.63
2019-02-26T00:14:49.991Z,7.63
2019-02-26T00:17:19.665Z,7.62
2019-02-26T00:19:49.999Z,7.61
2019-02-26T00:22:19.443Z,7.60
2019-02-26T00:24:48.925Z,7.59
2019-02-26T00:27:18.390Z,7.57
2019-02-26T00:29:49.191Z,7.57
2019-02-26T00:32:19.081Z,7.54
2019-02-26T00:34:48.565Z,7.52
2019-02-26T00:37:19.965Z,7.50
2019-02-26T00:39:49.692Z,7.48
2019-02-26T00:42:23.600Z,7.45
2019-02-26T00:44:55.338Z,7.42
2019-02-26T00:47:22.829Z,7.39
2019-02-26T00:49:53.469Z,7.35
2019-02-26T00:52:23.064Z,7.31
2019-02-26T00:54:53.613Z,7.27
2019-02-26T00:57:27.142Z,7.22
2019-02-26T00:59:55.003Z,7.18
2019-02-26T01:02:24.489Z,7.11
2019-02-26T01:04:53.949Z,7.06
2019-02-26T01:07:24.355Z,7.02
2019-02-26T01:09:55.217Z,6.96
2019-02-26T01:12:25.813Z,6.92
2019-02-26T01:14:55.346Z,6.86
2019-02-26T01:17:24.889Z,6.79
2019-02-26T01:19:56.392Z,6.73
2019-02-26T01:22:25.619Z,6.66
2019-02-26T01:24:56.365Z,6.61
2019-02-26T01:27:26.296Z,6.56
2019-02-26T01:29:55.931Z,6.50
2019-02-26T01:32:26.995Z,6.46
2019-02-26T01:34:56.448Z,6.41
2019-02-26T01:37:27.686Z,6.37
2019-02-26T01:39:57.148Z,6.33
2019-02-26T01:42:27.115Z,6.29
2019-02-26T01:44:57.892Z,6.25
2019-02-26T01:47:28.532Z,6.21
2019-02-26T01:49:59.409Z,6.17
2019-02-26T01:52:29.007Z,6.14
2019-02-26T01:55:00.271Z,6.09
2019-02-26T01:57:29.750Z,6.06
2019-02-26T01:59:59.211Z,6.03
2019-02-26T02:02:30.274Z,6.00
2019-02-26T02:05:02.131Z,5.96
2019-02-26T02:07:31.075Z,5.93
2019-02-26T02:10:02.744Z,5.90
2019-02-26T02:12:32.453Z,5.87
2019-02-26T02:15:03.035Z,5.85
2019-02-26T02:17:33.384Z,5.83
2019-02-26T02:20:07.690Z,5.80
2019-02-26T02:22:37.582Z,5.79
2019-02-26T02:25:08.759Z,5.75
2019-02-26T02:27:38.223Z,5.73
2019-02-26T02:30:22.456Z,5.73
2019-02-26T02:32:51.369Z,5.71
2019-02-26T02:35:19.629Z,5.69
2019-02-26T02:37:51.406Z,5.67
2019-02-26T02:40:20.562Z,5.65
2019-02-26T02:42:50.029Z,5.64
2019-02-26T02:45:21.083Z,5.62
2019-02-26T02:47:54.814Z,5.61
2019-02-26T02:50:22.073Z,5.61
2019-02-26T02:52:53.599Z,5.58
2019-02-26T02:55:22.744Z,5.59
2019-02-26T02:58:13.077Z,5.58
2019-02-26T03:00:42.779Z,5.57
2019-02-26T03:03:12.261Z,5.54
2019-02-26T03:05:43.799Z,5.55
2019-02-26T03:08:15.667Z,5.53
2019-02-26T03:10:45.074Z,5.49
2019-02-26T03:13:16.771Z,5.48
2019-02-26T03:15:47.513Z,5.47
2019-02-26T03:18:16.992Z,5.45
2019-02-26T03:20:46.494Z,5.43
2019-02-26T03:23:19.625Z,5.40
2019-02-26T03:25:47.853Z,5.38
2019-02-26T03:28:18.348Z,5.35
2019-02-26T03:30:47.844Z,5.32
2019-02-26T03:33:17.316Z,5.29
2019-02-26T03:35:46.817Z,5.27
2019-02-26T03:38:18.151Z,5.25
2019-02-26T03:40:49.261Z,5.21
2019-02-26T03:43:18.827Z,5.19
2019-02-26T03:45:48.314Z,5.17
2019-02-26T03:48:20.291Z,5.14
2019-02-26T03:50:49.006Z,5.12
2019-02-26T03:53:18.462Z,5.11
2019-02-26T03:55:48.509Z,5.09
2019-02-26T03:58:18.057Z,5.08
2019-02-26T04:00:47.604Z,5.05
2019-02-26T04:03:17.621Z,5.03
2019-02-26T04:05:47.300Z,5.00
2019-02-26T04:08:19.021Z,4.99
2019-02-26T04:10:49.950Z,4.97
2019-02-26T04:13:19.171Z,4.94
2019-02-26T04:15:51.355Z,4.93
2019-02-26T04:18:19.842Z,4.91
2019-02-26T04:20:49.333Z,4.90
2019-02-26T04:23:20.030Z,4.89
2019-02-26T04:26:06.396Z,4.86
2019-02-26T04:28:57.992Z,4.85
2019-02-26T04:32:04.604Z,4.82
2019-02-26T04:34:44.758Z,4.80
2019-02-26T04:37:38.544Z,4.78
2019-02-26T04:40:45.680Z,4.76
2019-02-26T04:43:39.118Z,4.76
2019-02-26T04:46:34.331Z,4.74
2019-02-26T04:49:02.924Z,4.72
2019-02-26T04:51:36.097Z,4.71
2019-02-26T04:54:03.687Z,4.70
2019-02-26T04:56:36.031Z,4.70
2019-02-26T04:59:06.241Z,4.69
2019-02-26T05:01:35.628Z,4.69
2019-02-26T05:04:05.363Z,4.68
2019-02-26T05:06:34.856Z,4.68
2019-02-26T05:09:07.534Z,4.67
2019-02-26T05:11:40.341Z,4.67
2019-02-26T05:14:09.121Z,4.66
2019-02-26T05:16:40.374Z,4.65
2019-02-26T05:19:10.638Z,4.66
2019-02-26T05:21:41.272Z,4.65
2019-02-26T05:24:13.066Z,4.66
2019-02-26T05:26:42.023Z,4.65
2019-02-26T05:29:13.411Z,4.66
2019-02-26T05:31:43.258Z,4.66
2019-02-26T05:34:15.154Z,4.66
2019-02-26T05:36:46.192Z,4.68
2019-02-26T05:39:18.064Z,4.69
2019-02-26T05:41:46.453Z,4.69
2019-02-26T05:44:15.938Z,4.72
2019-02-26T05:46:47.577Z,4.73
2019-02-26T05:49:19.520Z,4.74
2019-02-26T05:51:48.419Z,4.75
2019-02-26T05:54:21.385Z,4.76
2019-02-26T05:56:49.946Z,4.76
2019-02-26T05:59:21.807Z,4.76
2019-02-26T06:01:54.808Z,4.76
2019-02-26T06:04:21.974Z,4.77
2019-02-26T06:06:55.570Z,4.78
2019-02-26T06:09:25.488Z,4.78
2019-02-26T06:11:53.874Z,4.81
2019-02-26T06:14:25.483Z,4.83
2019-02-26T06:16:55.771Z,4.84
2019-02-26T06:19:44.736Z,4.85
2019-02-26T06:22:17.042Z,4.88
2019-02-26T06:24:44.794Z,4.90
2019-02-26T06:27:16.624Z,4.91
2019-02-26T06:29:45.643Z,4.94
2019-02-26T06:32:19.479Z,4.97
2019-02-26T06:34:48.974Z,4.97
2019-02-26T06:37:42.343Z,4.99
2019-02-26T06:40:17.524Z,5.01
2019-02-26T06:42:47.151Z,5.03
2019-02-26T06:45:17.037Z,5.05
2019-02-26T06:47:48.699Z,5.07
2019-02-26T06:50:18.909Z,5.08
2019-02-26T06:52:50.762Z,5.11
2019-02-26T06:55:19.986Z,5.13
2019-02-26T06:57:50.639Z,5.15
2019-02-26T07:00:22.278Z,5.18
2019-02-26T07:02:51.871Z,5.19
2019-02-26T07:05:23.900Z,5.22
2019-02-26T07:07:54.461Z,5.24
2019-02-26T07:10:26.228Z,5.26
2019-02-26T07:12:54.950Z,5.29
2019-02-26T07:15:24.427Z,5.33
2019-02-26T07:17:53.976Z,5.36
2019-02-26T07:20:23.437Z,5.40
2019-02-26T07:22:52.923Z,5.44
2019-02-26T07:25:22.373Z,5.48
2019-02-26T07:27:53.610Z,5.54
2019-02-26T07:30:23.053Z,5.60
2019-02-26T07:32:52.530Z,5.65
2019-02-26T07:35:22.038Z,5.71
2019-02-26T07:37:52.302Z,5.77
2019-02-26T07:40:22.682Z,5.85
2019-02-26T07:42:52.140Z,5.93
2019-02-26T07:45:22.861Z,6.00
2019-02-26T07:47:54.048Z,6.08
2019-02-26T07:50:24.104Z,6.14
2019-02-26T07:52:55.139Z,6.24
2019-02-26T07:55:24.826Z,6.32
2019-02-26T07:57:54.353Z,6.39
2019-02-26T08:00:25.091Z,6.48
2019-02-26T08:02:56.969Z,6.56
2019-02-26T08:05:28.669Z,6.65
2019-02-26T08:07:57.025Z,6.74
2019-02-26T08:10:26.557Z,6.84
2019-02-26T08:12:56.714Z,6.94
2019-02-26T08:15:27.786Z,7.03
2019-02-26T08:18:00.384Z,7.12
2019-02-26T08:20:30.454Z,7.24
2019-02-26T08:23:01.363Z,7.35
2019-02-26T08:25:30.965Z,7.46
2019-02-26T08:28:01.244Z,7.57
2019-02-26T08:30:30.997Z,7.71
2019-02-26T08:33:04.334Z,7.83
2019-02-26T08:35:31.802Z,7.96
2019-02-26T08:38:01.266Z,8.11
2019-02-26T08:40:30.758Z,8.25
2019-02-26T08:43:00.210Z,8.39
2019-02-26T08:45:31.013Z,8.53
2019-02-26T08:48:00.723Z,8.69
2019-02-26T08:50:33.098Z,8.85
2019-02-26T08:53:01.544Z,9.00
2019-02-26T08:55:31.017Z,9.16
2019-02-26T08:58:00.560Z,9.32
2019-02-26T09:00:30.207Z,9.48
2019-02-26T09:02:59.653Z,9.65
2019-02-26T09:05:31.715Z,9.82
2019-02-26T09:08:00.361Z,9.99
2019-02-26T09:10:29.838Z,10.15
2019-02-26T09:12:59.330Z,10.34
2019-02-26T09:15:28.956Z,10.50
2019-02-26T09:18:00.183Z,10.67
2019-02-26T09:20:29.680Z,10.84
2019-02-26T09:23:01.386Z,11.01
2019-02-26T09:25:31.555Z,11.18
2019-02-26T09:28:01.729Z,11.36
2019-02-26T09:30:33.404Z,11.53
2019-02-26T09:33:03.399Z,11.71
2019-02-26T09:35:33.628Z,11.88
2019-02-26T09:38:03.122Z,12.05
2019-02-26T09:40:34.425Z,12.22
2019-02-26T09:43:06.042Z,12.42
2019-02-26T09:45:35.258Z,12.59
2019-02-26T09:48:04.803Z,12.77
2019-02-26T09:50:36.094Z,12.94
2019-02-26T09:53:05.626Z,13.11
2019-02-26T09:55:35.132Z,13.28
2019-02-26T09:58:04.589Z,13.45
2019-02-26T10:00:34.157Z,13.63
2019-02-26T10:03:07.459Z,13.79
2019-02-26T10:05:34.872Z,13.96
2019-02-26T10:08:05.351Z,14.13
2019-02-26T10:10:39.195Z,14.28
2019-02-26T10:13:06.183Z,14.44
2019-02-26T10:15:39.302Z,14.61
2019-02-26T10:18:09.340Z,14.76
2019-02-26T10:20:38.143Z,14.92
2019-02-26T10:23:07.714Z,15.06
2019-02-26T10:25:38.804Z,15.21
2019-02-26T10:28:11.403Z,15.35
2019-02-26T10:30:41.675Z,15.51
2019-02-26T10:33:12.439Z,15.64
2019-02-26T10:35:44.903Z,15.77
2019-02-26T10:38:13.122Z,15.91
2019-02-26T10:40:53.361Z,16.04
2019-02-26T10:43:13.805Z,16.19
2019-02-26T10:45:44.823Z,16.32
2019-02-26T10:48:16.803Z,16.44
2019-02-26T10:50:49.115Z,16.59
2019-02-26T10:53:19.824Z,16.73
2019-02-26T10:55:48.328Z,16.85
2019-02-26T10:58:17.795Z,16.97
2019-02-26T11:00:50.588Z,17.11
2019-02-26T11:03:20.337Z,17.22
2019-02-26T11:05:52.202Z,17.36
2019-02-26T11:08:23.648Z,17.49
2019-02-26T11:10:52.568Z,17.60
2019-02-26T11:13:24.855Z,17.73
2019-02-26T11:15:54.399Z,17.83
2019-02-26T11:18:29.100Z,17.95
2019-02-26T11:20:59.354Z,18.04
2019-02-26T11:23:31.241Z,18.15
2019-02-26T11:26:00.199Z,18.28
2019-02-26T11:28:32.633Z,18.38
2019-02-26T11:31:00.910Z,18.49
2019-02-26T11:33:30.596Z,18.57
2019-02-26T11:36:00.053Z,18.68
2019-02-26T11:38:29.566Z,18.76
2019-02-26T11:40:59.091Z,18.85
2019-02-26T11:43:29.029Z,18.94
2019-02-26T11:45:59.092Z,19.02
2019-02-26T11:48:32.705Z,19.11
2019-02-26T11:51:01.486Z,19.19
2019-02-26T11:53:31.079Z,19.28
2019-02-26T11:56:02.040Z,19.37
2019-02-26T11:58:32.218Z,19.46
2019-02-26T12:01:02.466Z,19.57
2019-02-26T12:03:34.088Z,19.67
2019-02-26T12:06:03.283Z,19.76
2019-02-26T12:08:32.793Z,19.85
2019-02-26T12:11:03.971Z,19.95
2019-02-26T12:13:33.585Z,20.04
2019-02-26T12:16:22.424Z,20.11
2019-02-26T12:19:11.299Z,20.20
2019-02-26T12:22:01.304Z,20.28
2019-02-26T12:24:55.741Z,20.03
2019-02-26T12:27:43.247Z,20.43
2019-02-26T12:30:32.302Z,20.51
2019-02-26T12:33:22.480Z,20.59
2019-02-26T12:42:03.316Z,20.76
2019-02-26T12:44:52.189Z,20.84
2019-02-26T12:47:42.892Z,20.88
2019-02-26T12:50:36.030Z,20.93
2019-02-26T12:53:23.622Z,20.96
2019-02-26T12:56:13.293Z,21.00
2019-02-26T12:59:02.144Z,21.07
2019-02-26T13:01:51.848Z,21.11
2019-02-26T13:04:44.160Z,21.17
2019-02-26T13:07:32.260Z,21.20
2019-02-26T13:10:15.206Z,21.23
2019-02-26T13:13:00.178Z,21.08
2019-02-26T13:15:48.871Z,20.97
2019-02-26T13:18:37.670Z,21.34
2019-02-26T13:21:26.484Z,21.37
2019-02-26T13:24:17.746Z,21.07
2019-02-26T13:27:05.972Z,21.43
2019-02-26T13:29:57.122Z,21.44
2019-02-26T13:33:04.775Z,21.47
2019-02-26T13:35:35.914Z,21.50
2019-02-26T13:38:33.711Z,21.52
2019-02-26T13:41:28.948Z,21.55
2019-02-26T13:44:06.052Z,21.57
2019-02-26T13:46:54.988Z,21.58
2019-02-26T13:49:43.834Z,21.60
2019-02-26T13:52:32.675Z,21.63
2019-02-26T13:55:21.594Z,21.67
2019-02-26T13:58:11.943Z,21.45
2019-02-26T14:01:01.120Z,21.73
2019-02-26T14:03:50.031Z,21.77
2019-02-26T14:06:39.037Z,21.60
2019-02-26T14:09:28.743Z,21.83
2019-02-26T14:12:11.182Z,21.85
2019-02-26T14:15:00.176Z,21.88
2019-02-26T14:17:49.242Z,21.90
2019-02-26T14:20:38.171Z,21.92
2019-02-26T14:23:07.758Z,21.96
2019-02-26T14:25:56.573Z,21.98
2019-02-26T14:28:45.435Z,22.00
2019-02-26T14:31:34.304Z,22.01
2019-02-26T14:34:23.169Z,21.83
2019-02-26T14:37:12.547Z,22.03
2019-02-26T14:39:42.308Z,22.03
2019-02-26T14:42:14.868Z,22.03
2019-02-26T14:44:44.513Z,22.02
2019-02-26T14:47:14.292Z,22.03
2019-02-26T14:49:43.984Z,22.02
2019-02-26T14:52:13.793Z,22.02
2019-02-26T14:54:43.488Z,22.02
2019-02-26T14:57:13.746Z,22.03
2019-02-26T14:59:43.441Z,22.02
2019-02-26T15:02:13.123Z,22.01
2019-02-26T15:04:42.766Z,21.98
2019-02-26T15:07:12.581Z,21.98
2019-02-26T15:09:42.481Z,21.96
2019-02-26T15:12:12.245Z,21.95
2019-02-26T15:14:41.909Z,21.91
2019-02-26T15:17:11.601Z,21.89
2019-02-26T15:19:49.410Z,21.88
2019-02-26T15:22:14.823Z,21.85
2019-02-26T15:24:44.394Z,21.83
2019-02-26T15:27:14.012Z,21.80
2019-02-26T15:29:43.798Z,21.77
2019-02-26T15:32:13.442Z,21.74
2019-02-26T15:34:43.026Z,21.71
2019-02-26T15:37:12.653Z,21.67
2019-02-26T15:39:42.296Z,21.65
2019-02-26T15:42:12.156Z,21.60
2019-02-26T15:44:41.732Z,21.58
2019-02-26T15:47:11.353Z,21.54
2019-02-26T15:49:41.981Z,21.49
2019-02-26T15:52:11.621Z,21.45
2019-02-26T15:54:41.260Z,21.39
2019-02-26T15:57:10.880Z,21.35
2019-02-26T15:59:40.623Z,21.30
2019-02-26T16:02:10.285Z,21.23
2019-02-26T16:04:39.907Z,21.19
2019-02-26T16:07:09.484Z,21.12
2019-02-26T16:09:39.043Z,21.06
2019-02-26T16:12:08.650Z,21.00
2019-02-26T16:14:38.618Z,20.93
2019-02-26T16:17:08.584Z,20.86
2019-02-26T16:19:38.250Z,20.78
2019-02-26T16:22:08.380Z,20.72
2019-02-26T16:24:38.121Z,20.65
2019-02-26T16:27:08.226Z,20.58
2019-02-26T16:29:37.836Z,20.48
2019-02-26T16:32:07.446Z,20.41
2019-02-26T16:34:37.082Z,20.33
2019-02-26T16:37:07.823Z,20.25
2019-02-26T16:39:37.638Z,20.14
2019-02-26T16:42:07.345Z,20.04
2019-02-26T16:44:37.082Z,19.91
2019-02-26T16:47:06.954Z,19.77
2019-02-26T16:49:36.698Z,19.64
2019-02-26T16:52:06.699Z,19.49
2019-02-26T16:54:38.659Z,19.33
2019-02-26T16:57:07.777Z,19.15
2019-02-26T16:59:38.548Z,18.98
2019-02-26T17:02:08.828Z,18.81
2019-02-26T17:04:40.690Z,18.64
2019-02-26T17:07:09.826Z,18.44
2019-02-26T17:09:39.739Z,18.24
2019-02-26T17:12:09.455Z,18.06
2019-02-26T17:14:39.149Z,17.86
2019-02-26T17:17:08.720Z,17.68
2019-02-26T17:19:38.376Z,17.48
2019-02-26T17:22:08.060Z,17.27
2019-02-26T17:24:37.753Z,17.09
2019-02-26T17:27:07.558Z,16.90
2019-02-26T17:29:37.323Z,16.72
2019-02-26T17:32:07.008Z,16.54
2019-02-26T17:34:36.690Z,16.36
2019-02-26T17:37:21.564Z,16.19
2019-02-26T17:39:57.500Z,16.01
2019-02-26T17:42:27.086Z,15.82
2019-02-26T17:44:56.808Z,15.65
2019-02-26T17:47:26.587Z,15.47
2019-02-26T17:50:01.111Z,15.31
2019-02-26T17:52:30.749Z,15.14
2019-02-26T17:55:00.409Z,14.98
2019-02-26T17:57:31.983Z,14.83
2019-02-26T18:00:01.623Z,14.71
2019-02-26T18:02:31.250Z,14.56
2019-02-26T18:05:01.733Z,14.42
2019-02-26T18:07:31.599Z,14.29
2019-02-26T18:10:01.332Z,14.17
2019-02-26T18:12:31.078Z,14.02
2019-02-26T18:15:00.677Z,13.90
2019-02-26T18:17:30.288Z,13.77
2019-02-26T18:19:59.886Z,13.64
2019-02-26T18:22:29.583Z,13.53
2019-02-26T18:24:59.296Z,13.41
2019-02-26T18:27:30.486Z,13.29
2019-02-26T18:30:00.828Z,13.19
2019-02-26T18:32:30.545Z,13.07
2019-02-26T18:35:00.226Z,12.97
2019-02-26T18:37:29.864Z,12.85
2019-02-26T18:39:59.560Z,12.77
2019-02-26T18:42:29.165Z,12.67
2019-02-26T18:44:58.922Z,12.58
2019-02-26T18:47:28.700Z,12.48
2019-02-26T18:49:58.372Z,12.39
2019-02-26T18:52:27.984Z,12.31
2019-02-26T18:54:57.685Z,12.21
2019-02-26T18:57:27.440Z,12.12
2019-02-26T18:59:57.242Z,12.04
2019-02-26T19:02:26.894Z,11.97
2019-02-26T19:04:56.663Z,11.89
2019-02-26T19:07:26.381Z,11.82
2019-02-26T19:09:55.991Z,11.76
2019-02-26T19:12:25.622Z,11.69
2019-02-26T19:14:55.439Z,11.63
2019-02-26T19:17:26.747Z,11.57
2019-02-26T19:19:56.544Z,11.51
2019-02-26T19:22:27.346Z,11.46
2019-02-26T19:24:56.977Z,11.40
2019-02-26T19:27:26.814Z,11.36
2019-02-26T19:29:56.613Z,11.32
2019-02-26T19:32:26.333Z,11.28
2019-02-26T19:34:58.739Z,11.23
2019-02-26T19:37:28.995Z,11.19
2019-02-26T19:39:58.740Z,11.15
2019-02-26T19:42:28.625Z,11.11
2019-02-26T19:44:58.452Z,11.08
2019-02-26T19:47:28.173Z,11.04
2019-02-26T19:49:58.694Z,11.02
2019-02-26T19:52:28.520Z,10.98
2019-02-26T19:54:58.256Z,10.96
2019-02-26T19:57:30.220Z,10.95
2019-02-26T20:00:00.868Z,10.94
2019-02-26T20:02:31.685Z,10.94
2019-02-26T20:05:01.945Z,10.94
2019-02-26T20:07:49.378Z,10.95
2019-02-26T20:10:19.554Z,10.94
2019-02-26T20:12:49.376Z,10.94
2019-02-26T20:15:21.677Z,10.95
2019-02-26T20:17:50.492Z,10.94
2019-02-26T20:20:22.097Z,10.95
2019-02-26T20:22:51.861Z,10.95
2019-02-26T20:25:23.496Z,10.96
2019-02-26T20:27:54.853Z,10.94
2019-02-26T20:30:25.586Z,10.94
2019-02-26T20:32:55.428Z,10.94
2019-02-26T20:35:25.262Z,10.92
2019-02-26T20:37:58.589Z,10.88
2019-02-26T20:40:26.877Z,10.86
2019-02-26T20:42:56.334Z,10.85
2019-02-26T20:45:26.113Z,10.84
2019-02-26T20:47:55.665Z,10.81
2019-02-26T20:50:25.134Z,10.81
2019-02-26T20:52:54.650Z,10.82
2019-02-26T20:55:27.673Z,10.80
2019-02-26T20:57:57.155Z,10.78
2019-02-26T21:00:26.733Z,10.75
2019-02-26T21:02:56.238Z,10.71
2019-02-26T21:05:25.821Z,10.68
2019-02-26T21:07:58.007Z,10.64
2019-02-26T21:10:26.622Z,10.60
2019-02-26T21:12:56.185Z,10.57
2019-02-26T21:15:26.375Z,10.53
2019-02-26T21:17:58.059Z,10.50
2019-02-26T21:20:27.103Z,10.46
2019-02-26T21:22:56.578Z,10.44
2019-02-26T21:25:26.091Z,10.40
2019-02-26T21:27:55.587Z,10.36
2019-02-26T21:30:25.753Z,10.33
2019-02-26T21:32:57.770Z,10.28
2019-02-26T21:35:26.482Z,10.25
2019-02-26T21:38:15.356Z,10.21
2019-02-26T21:40:48.823Z,10.17
2019-02-26T21:43:16.220Z,10.14
2019-02-26T21:45:49.161Z,10.09
2019-02-26T21:48:16.929Z,10.06
2019-02-26T21:50:46.490Z,10.03
2019-02-26T21:53:16.471Z,9.99
2019-02-26T21:55:46.015Z,9.95
2019-02-26T21:58:15.528Z,9.91
2019-02-26T22:00:45.012Z,9.88
2019-02-26T22:03:14.558Z,9.85
2019-02-26T22:06:05.583Z,9.82
2019-02-26T22:08:34.683Z,9.78
2019-02-26T22:11:04.150Z,9.76
2019-02-26T22:13:33.598Z,9.73
2019-02-26T22:16:03.110Z,9.70
2019-02-26T22:18:34.272Z,9.68
2019-02-26T22:21:03.879Z,9.65
2019-02-26T22:23:34.258Z,9.64
2019-02-26T22:26:04.393Z,9.61
2019-02-26T22:28:33.885Z,9.59
2019-02-26T22:31:03.357Z,9.56
2019-02-26T22:33:32.875Z,9.54
2019-02-26T22:36:02.352Z,9.52
2019-02-26T22:38:31.848Z,9.51
2019-02-26T22:41:02.340Z,9.47
2019-02-26T22:43:32.482Z,9.45
2019-02-26T22:46:02.019Z,9.42
2019-02-26T22:48:31.539Z,9.38
2019-02-26T22:51:01.078Z,9.35
2019-02-26T22:53:30.549Z,9.30
2019-02-26T22:56:00.119Z,9.27
2019-02-26T22:58:29.650Z,9.22
2019-02-26T23:01:19.946Z,9.18
2019-02-26T23:03:49.579Z,9.13
2019-02-26T23:06:19.039Z,9.08
2019-02-26T23:08:48.523Z,9.03
2019-02-26T23:11:37.632Z,8.98
2019-02-26T23:14:07.741Z,8.91
2019-02-26T23:16:37.474Z,8.86
2019-02-26T23:19:07.310Z,8.80
2019-02-26T23:21:37.626Z,8.73
2019-02-26T23:24:07.366Z,8.67
2019-02-26T23:26:41.654Z,8.60
2019-02-26T23:29:08.952Z,8.53
2019-02-26T23:31:38.594Z,8.46
2019-02-26T23:34:08.084Z,8.39
2019-02-26T23:36:37.729Z,8.32
2019-02-26T23:39:08.073Z,8.25
2019-02-26T23:41:37.634Z,8.19
2019-02-26T23:44:07.345Z,8.12
2019-02-26T23:46:36.998Z,8.06
2019-02-26T23:49:06.554Z,8.00
2019-02-26T23:51:36.015Z,7.94
2019-02-26T23:54:07.311Z,7.89
2019-02-26T23:56:36.845Z,7.85
2019-02-26T23:59:06.319Z,7.80
